sensor_id;sensor_type;location;lat;lon;timestamp;temperature;humidity
41939;DHT22;23057;48.554;14.454;2023-02-19T00:00:36;7.10;99.90
41939;DHT22;23057;48.554;14.454;2023-02-19T00:03:07;7.10;99.90
41939;DHT22;23057;48.554;14.454;2023-02-19T00:05:38;7.10;99.90
41939;DHT22;23057;48.554;14.454;2023-02-19T00:08:08;7.10;99.90
41939;DHT22;23057;48.554;14.454;2023-02-19T00:10:39;7.10;99.90
41939;DHT22;23057;48.554;14.454;2023-02-19T00:13:10;7.10;99.90
41939;DHT22;23057;48.554;14.454;2023-02-19T00:15:41;7.10;99.90
41939;DHT22;23057;48.554;14.454;2023-02-19T00:18:11;7.10;99.90
41939;DHT22;23057;48.554;14.454;2023-02-19T00:20:42;7.10;99.90
41939;DHT22;23057;48.554;14.454;2023-02-19T00:23:13;7.10;99.90
41939;DHT22;23057;48.554;14.454;2023-02-19T00:25:44;7.10;99.90
41939;DHT22;23057;48.554;14.454;2023-02-19T00:28:14;7.10;99.90
41939;DHT22;23057;48.554;14.454;2023-02-19T00:30:45;7.10;99.90
41939;DHT22;23057;48.554;14.454;2023-02-19T00:33:17;7.10;99.90
41939;DHT22;23057;48.554;14.454;2023-02-19T00:35:48;7.10;99.90
41939;DHT22;23057;48.554;14.454;2023-02-19T00:38:18;7.00;99.90
41939;DHT22;23057;48.554;14.454;2023-02-19T00:40:49;7.00;99.90
41939;DHT22;23057;48.554;14.454;2023-02-19T00:43:20;7.00;99.90
41939;DHT22;23057;48.554;14.454;2023-02-19T00:45:51;6.90;99.90
41939;DHT22;23057;48.554;14.454;2023-02-19T00:48:22;6.90;99.90
41939;DHT22;23057;48.554;14.454;2023-02-19T00:50:52;6.90;99.90
41939;DHT22;23057;48.554;14.454;2023-02-19T00:53:23;6.90;99.90
41939;DHT22;23057;48.554;14.454;2023-02-19T00:55:54;6.90;99.90
41939;DHT22;23057;48.554;14.454;2023-02-19T00:58:24;6.90;99.90
41939;DHT22;23057;48.554;14.454;2023-02-19T01:00:55;6.80;99.90
41939;DHT22;23057;48.554;14.454;2023-02-19T01:03:26;6.80;99.90
41939;DHT22;23057;48.554;14.454;2023-02-19T01:05:57;6.80;99.90
41939;DHT22;23057;48.554;14.454;2023-02-19T01:08:28;6.80;99.90
41939;DHT22;23057;48.554;14.454;2023-02-19T01:11:00;6.80;99.90
41939;DHT22;23057;48.554;14.454;2023-02-19T01:13:34;6.80;99.90
41939;DHT22;23057;48.554;14.454;2023-02-19T01:16:06;6.80;99.90
41939;DHT22;23057;48.554;14.454;2023-02-19T01:18:42;6.80;99.90
41939;DHT22;23057;48.554;14.454;2023-02-19T01:21:16;6.90;99.90
41939;DHT22;23057;48.554;14.454;2023-02-19T01:23:50;6.90;99.90
41939;DHT22;23057;48.554;14.454;2023-02-19T01:26:23;6.90;99.90
41939;DHT22;23057;48.554;14.454;2023-02-19T01:28:58;6.90;99.90
41939;DHT22;23057;48.554;14.454;2023-02-19T01:31:30;6.90;99.90
41939;DHT22;23057;48.554;14.454;2023-02-19T01:34:02;7.00;99.90
41939;DHT22;23057;48.554;14.454;2023-02-19T01:36:33;6.90;99.90
41939;DHT22;23057;48.554;14.454;2023-02-19T01:39:06;6.80;99.90
41939;DHT22;23057;48.554;14.454;2023-02-19T01:41:38;6.80;99.90
41939;DHT22;23057;48.554;14.454;2023-02-19T01:46:41;6.80;99.90
41939;DHT22;23057;48.554;14.454;2023-02-19T01:49:20;6.80;99.90
41939;DHT22;23057;48.554;14.454;2023-02-19T01:52:13;6.80;99.90
41939;DHT22;23057;48.554;14.454;2023-02-19T01:54:50;6.80;99.90
41939;DHT22;23057;48.554;14.454;2023-02-19T01:57:25;6.70;99.90
41939;DHT22;23057;48.554;14.454;2023-02-19T02:00:05;6.70;99.90
41939;DHT22;23057;48.554;14.454;2023-02-19T02:02:41;6.70;99.90
41939;DHT22;23057;48.554;14.454;2023-02-19T02:05:20;6.60;99.90
41939;DHT22;23057;48.554;14.454;2023-02-19T02:07:59;6.60;99.90
41939;DHT22;23057;48.554;14.454;2023-02-19T02:10:51;6.60;99.90
41939;DHT22;23057;48.554;14.454;2023-02-19T02:13:24;6.60;99.90
41939;DHT22;23057;48.554;14.454;2023-02-19T02:16:00;6.60;99.90
41939;DHT22;23057;48.554;14.454;2023-02-19T02:22:21;6.60;99.90
41939;DHT22;23057;48.554;14.454;2023-02-19T02:31:06;6.50;99.90
41939;DHT22;23057;48.554;14.454;2023-02-19T02:36:46;6.50;99.90
41939;DHT22;23057;48.554;14.454;2023-02-19T02:39:24;6.50;99.90
41939;DHT22;23057;48.554;14.454;2023-02-19T02:41:58;6.50;99.90
41939;DHT22;23057;48.554;14.454;2023-02-19T02:44:48;6.50;99.90
41939;DHT22;23057;48.554;14.454;2023-02-19T02:47:45;6.50;99.90
41939;DHT22;23057;48.554;14.454;2023-02-19T02:50:26;6.50;99.90
41939;DHT22;23057;48.554;14.454;2023-02-19T02:53:16;6.50;99.90
41939;DHT22;23057;48.554;14.454;2023-02-19T02:56:18;6.60;99.90
41939;DHT22;23057;48.554;14.454;2023-02-19T02:58:51;6.60;99.90
41939;DHT22;23057;48.554;14.454;2023-02-19T03:01:34;6.60;99.90
41939;DHT22;23057;48.554;14.454;2023-02-19T03:04:37;6.70;99.90
41939;DHT22;23057;48.554;14.454;2023-02-19T03:11:22;6.70;99.90
41939;DHT22;23057;48.554;14.454;2023-02-19T03:13:58;6.70;99.90
41939;DHT22;23057;48.554;14.454;2023-02-19T03:17:16;6.70;99.90
41939;DHT22;23057;48.554;14.454;2023-02-19T03:20:12;6.70;99.90
41939;DHT22;23057;48.554;14.454;2023-02-19T03:22:49;6.70;99.90
41939;DHT22;23057;48.554;14.454;2023-02-19T03:25:26;6.70;99.90
41939;DHT22;23057;48.554;14.454;2023-02-19T03:28:20;6.60;99.90
41939;DHT22;23057;48.554;14.454;2023-02-19T03:31:17;6.70;99.90
41939;DHT22;23057;48.554;14.454;2023-02-19T03:34:11;6.70;99.90
41939;DHT22;23057;48.554;14.454;2023-02-19T03:37:08;6.60;99.90
41939;DHT22;23057;48.554;14.454;2023-02-19T03:39:54;6.60;99.90
41939;DHT22;23057;48.554;14.454;2023-02-19T03:42:41;6.50;99.90
41939;DHT22;23057;48.554;14.454;2023-02-19T03:48:53;6.60;99.90
41939;DHT22;23057;48.554;14.454;2023-02-19T03:51:44;6.60;99.90
41939;DHT22;23057;48.554;14.454;2023-02-19T03:57:05;6.50;99.90
41939;DHT22;23057;48.554;14.454;2023-02-19T03:59:50;6.70;99.90
41939;DHT22;23057;48.554;14.454;2023-02-19T04:02:34;6.80;99.90
41939;DHT22;23057;48.554;14.454;2023-02-19T04:05:15;6.90;99.90
41939;DHT22;23057;48.554;14.454;2023-02-19T04:07:53;6.80;99.90
41939;DHT22;23057;48.554;14.454;2023-02-19T04:10:28;6.80;99.90
41939;DHT22;23057;48.554;14.454;2023-02-19T04:13:04;6.80;99.90
41939;DHT22;23057;48.554;14.454;2023-02-19T04:15:42;6.90;99.90
41939;DHT22;23057;48.554;14.454;2023-02-19T04:18:21;7.00;99.90
41939;DHT22;23057;48.554;14.454;2023-02-19T04:20:57;7.00;99.90
41939;DHT22;23057;48.554;14.454;2023-02-19T04:23:32;7.00;99.90
41939;DHT22;23057;48.554;14.454;2023-02-19T04:26:10;7.00;99.90
41939;DHT22;23057;48.554;14.454;2023-02-19T04:28:44;7.10;99.90
41939;DHT22;23057;48.554;14.454;2023-02-19T04:31:16;7.10;99.90
41939;DHT22;23057;48.554;14.454;2023-02-19T04:33:47;7.10;99.90
41939;DHT22;23057;48.554;14.454;2023-02-19T04:36:17;7.20;99.90
41939;DHT22;23057;48.554;14.454;2023-02-19T04:38:48;7.20;99.90
41939;DHT22;23057;48.554;14.454;2023-02-19T04:41:19;7.10;99.90
41939;DHT22;23057;48.554;14.454;2023-02-19T04:43:49;7.10;99.90
41939;DHT22;23057;48.554;14.454;2023-02-19T04:46:20;7.20;99.90
41939;DHT22;23057;48.554;14.454;2023-02-19T04:48:51;7.20;99.90
41939;DHT22;23057;48.554;14.454;2023-02-19T04:51:22;7.10;99.90
41939;DHT22;23057;48.554;14.454;2023-02-19T04:53:53;7.10;99.90
41939;DHT22;23057;48.554;14.454;2023-02-19T04:56:25;7.10;99.90
41939;DHT22;23057;48.554;14.454;2023-02-19T04:58:56;7.10;99.90
41939;DHT22;23057;48.554;14.454;2023-02-19T05:01:27;7.10;99.90
41939;DHT22;23057;48.554;14.454;2023-02-19T05:03:58;7.10;99.90
41939;DHT22;23057;48.554;14.454;2023-02-19T05:06:28;7.20;99.90
41939;DHT22;23057;48.554;14.454;2023-02-19T05:08:59;7.20;99.90
41939;DHT22;23057;48.554;14.454;2023-02-19T05:11:30;7.30;99.90
41939;DHT22;23057;48.554;14.454;2023-02-19T05:14:01;7.20;99.90
41939;DHT22;23057;48.554;14.454;2023-02-19T05:16:31;7.20;99.90
41939;DHT22;23057;48.554;14.454;2023-02-19T05:19:02;7.20;99.90
41939;DHT22;23057;48.554;14.454;2023-02-19T05:21:33;7.20;99.90
41939;DHT22;23057;48.554;14.454;2023-02-19T05:24:06;7.30;99.90
41939;DHT22;23057;48.554;14.454;2023-02-19T05:26:37;7.20;99.90
41939;DHT22;23057;48.554;14.454;2023-02-19T05:29:08;7.20;99.90
41939;DHT22;23057;48.554;14.454;2023-02-19T05:31:39;7.20;99.90
41939;DHT22;23057;48.554;14.454;2023-02-19T05:34:09;7.10;99.90
41939;DHT22;23057;48.554;14.454;2023-02-19T05:36:40;7.20;99.90
41939;DHT22;23057;48.554;14.454;2023-02-19T05:39:11;7.10;99.90
41939;DHT22;23057;48.554;14.454;2023-02-19T05:41:42;7.10;99.90
41939;DHT22;23057;48.554;14.454;2023-02-19T05:44:12;7.10;99.90
41939;DHT22;23057;48.554;14.454;2023-02-19T05:46:43;7.10;99.90
41939;DHT22;23057;48.554;14.454;2023-02-19T05:49:14;7.10;99.90
41939;DHT22;23057;48.554;14.454;2023-02-19T05:51:45;7.10;99.90
41939;DHT22;23057;48.554;14.454;2023-02-19T05:54:15;7.10;99.90
41939;DHT22;23057;48.554;14.454;2023-02-19T05:56:46;7.10;99.90
41939;DHT22;23057;48.554;14.454;2023-02-19T05:59:18;7.10;99.90
41939;DHT22;23057;48.554;14.454;2023-02-19T06:01:52;7.10;99.90
41939;DHT22;23057;48.554;14.454;2023-02-19T06:04:24;7.00;99.90
41939;DHT22;23057;48.554;14.454;2023-02-19T06:06:55;7.00;99.90
41939;DHT22;23057;48.554;14.454;2023-02-19T06:09:25;7.00;99.90
41939;DHT22;23057;48.554;14.454;2023-02-19T06:11:56;7.00;99.90
41939;DHT22;23057;48.554;14.454;2023-02-19T06:14:27;6.90;99.90
41939;DHT22;23057;48.554;14.454;2023-02-19T06:16:58;6.90;99.90
41939;DHT22;23057;48.554;14.454;2023-02-19T06:19:28;6.90;99.90
41939;DHT22;23057;48.554;14.454;2023-02-19T06:21:59;6.90;99.90
41939;DHT22;23057;48.554;14.454;2023-02-19T06:24:30;7.00;99.90
41939;DHT22;23057;48.554;14.454;2023-02-19T06:27:01;7.10;99.90
41939;DHT22;23057;48.554;14.454;2023-02-19T06:29:35;7.10;99.90
41939;DHT22;23057;48.554;14.454;2023-02-19T06:32:09;7.00;99.90
41939;DHT22;23057;48.554;14.454;2023-02-19T06:34:40;7.10;99.90
41939;DHT22;23057;48.554;14.454;2023-02-19T06:37:10;7.10;99.90
41939;DHT22;23057;48.554;14.454;2023-02-19T06:39:41;7.10;99.90
41939;DHT22;23057;48.554;14.454;2023-02-19T06:42:13;7.10;99.90
41939;DHT22;23057;48.554;14.454;2023-02-19T06:44:43;7.10;99.90
41939;DHT22;23057;48.554;14.454;2023-02-19T06:47:14;7.10;99.90
41939;DHT22;23057;48.554;14.454;2023-02-19T06:49:45;7.10;99.90
41939;DHT22;23057;48.554;14.454;2023-02-19T06:52:15;7.10;99.90
41939;DHT22;23057;48.554;14.454;2023-02-19T06:54:46;7.10;99.90
41939;DHT22;23057;48.554;14.454;2023-02-19T06:57:17;7.10;99.90
41939;DHT22;23057;48.554;14.454;2023-02-19T06:59:48;7.10;99.90
41939;DHT22;23057;48.554;14.454;2023-02-19T07:02:19;7.20;99.90
41939;DHT22;23057;48.554;14.454;2023-02-19T07:04:49;7.20;99.90
41939;DHT22;23057;48.554;14.454;2023-02-19T07:07:20;7.10;99.90
41939;DHT22;23057;48.554;14.454;2023-02-19T07:09:51;7.10;99.90
41939;DHT22;23057;48.554;14.454;2023-02-19T07:12:21;7.10;99.90
41939;DHT22;23057;48.554;14.454;2023-02-19T07:14:52;7.10;99.90
41939;DHT22;23057;48.554;14.454;2023-02-19T07:17:23;7.20;99.90
41939;DHT22;23057;48.554;14.454;2023-02-19T07:19:53;7.20;99.90
41939;DHT22;23057;48.554;14.454;2023-02-19T07:22:24;7.10;99.90
41939;DHT22;23057;48.554;14.454;2023-02-19T07:24:55;7.30;99.90
41939;DHT22;23057;48.554;14.454;2023-02-19T07:27:26;7.30;99.90
41939;DHT22;23057;48.554;14.454;2023-02-19T07:29:56;7.20;99.90
41939;DHT22;23057;48.554;14.454;2023-02-19T07:32:28;7.20;99.90
41939;DHT22;23057;48.554;14.454;2023-02-19T07:34:59;7.20;99.90
41939;DHT22;23057;48.554;14.454;2023-02-19T07:37:29;7.20;99.90
41939;DHT22;23057;48.554;14.454;2023-02-19T07:40:00;7.20;99.90
41939;DHT22;23057;48.554;14.454;2023-02-19T07:42:32;7.30;99.90
41939;DHT22;23057;48.554;14.454;2023-02-19T07:45:02;7.20;99.90
41939;DHT22;23057;48.554;14.454;2023-02-19T07:47:33;7.30;99.90
41939;DHT22;23057;48.554;14.454;2023-02-19T07:50:04;7.40;99.90
41939;DHT22;23057;48.554;14.454;2023-02-19T07:52:36;7.40;99.90
41939;DHT22;23057;48.554;14.454;2023-02-19T07:55:06;7.40;99.90
41939;DHT22;23057;48.554;14.454;2023-02-19T07:57:37;7.40;99.90
41939;DHT22;23057;48.554;14.454;2023-02-19T08:00:08;7.30;99.90
41939;DHT22;23057;48.554;14.454;2023-02-19T08:02:39;7.30;99.90
41939;DHT22;23057;48.554;14.454;2023-02-19T08:05:29;7.20;99.90
41939;DHT22;23057;48.554;14.454;2023-02-19T08:08:09;7.10;99.90
41939;DHT22;23057;48.554;14.454;2023-02-19T08:10:43;7.20;99.90
41939;DHT22;23057;48.554;14.454;2023-02-19T08:13:32;7.20;99.90
41939;DHT22;23057;48.554;14.454;2023-02-19T08:18:34;7.20;99.90
41939;DHT22;23057;48.554;14.454;2023-02-19T08:21:05;7.20;99.90
41939;DHT22;23057;48.554;14.454;2023-02-19T08:23:36;7.20;99.90
41939;DHT22;23057;48.554;14.454;2023-02-19T08:26:07;7.20;99.90
41939;DHT22;23057;48.554;14.454;2023-02-19T08:28:39;7.30;99.90
41939;DHT22;23057;48.554;14.454;2023-02-19T08:31:10;7.50;99.90
41939;DHT22;23057;48.554;14.454;2023-02-19T08:33:42;7.40;99.90
41939;DHT22;23057;48.554;14.454;2023-02-19T08:36:12;7.50;99.90
41939;DHT22;23057;48.554;14.454;2023-02-19T08:38:43;7.50;99.90
41939;DHT22;23057;48.554;14.454;2023-02-19T08:41:14;7.50;99.90
41939;DHT22;23057;48.554;14.454;2023-02-19T08:43:45;7.50;99.90
41939;DHT22;23057;48.554;14.454;2023-02-19T08:46:15;7.50;99.90
41939;DHT22;23057;48.554;14.454;2023-02-19T08:48:47;7.50;99.90
41939;DHT22;23057;48.554;14.454;2023-02-19T08:51:17;7.50;99.90
41939;DHT22;23057;48.554;14.454;2023-02-19T08:53:48;7.50;99.90
41939;DHT22;23057;48.554;14.454;2023-02-19T08:56:19;7.50;99.90
41939;DHT22;23057;48.554;14.454;2023-02-19T08:58:50;7.70;99.90
41939;DHT22;23057;48.554;14.454;2023-02-19T09:01:20;7.80;99.90
41939;DHT22;23057;48.554;14.454;2023-02-19T09:03:51;8.00;99.90
41939;DHT22;23057;48.554;14.454;2023-02-19T09:06:22;8.00;99.90
41939;DHT22;23057;48.554;14.454;2023-02-19T09:08:53;8.10;99.90
41939;DHT22;23057;48.554;14.454;2023-02-19T09:11:24;8.00;99.90
41939;DHT22;23057;48.554;14.454;2023-02-19T09:13:55;7.90;99.90
41939;DHT22;23057;48.554;14.454;2023-02-19T09:16:26;7.80;99.90
41939;DHT22;23057;48.554;14.454;2023-02-19T09:18:57;7.70;99.90
41939;DHT22;23057;48.554;14.454;2023-02-19T09:21:28;7.60;99.90
41939;DHT22;23057;48.554;14.454;2023-02-19T09:23:59;7.60;99.90
41939;DHT22;23057;48.554;14.454;2023-02-19T09:26:29;7.70;99.90
41939;DHT22;23057;48.554;14.454;2023-02-19T09:29:00;7.70;99.90
41939;DHT22;23057;48.554;14.454;2023-02-19T09:31:31;7.80;99.90
41939;DHT22;23057;48.554;14.454;2023-02-19T09:34:04;7.70;99.90
41939;DHT22;23057;48.554;14.454;2023-02-19T09:36:35;7.70;99.90
41939;DHT22;23057;48.554;14.454;2023-02-19T09:39:06;7.90;99.90
41939;DHT22;23057;48.554;14.454;2023-02-19T09:44:26;7.60;99.90
41939;DHT22;23057;48.554;14.454;2023-02-19T09:47:02;7.60;99.90
41939;DHT22;23057;48.554;14.454;2023-02-19T09:49:46;7.60;99.90
41939;DHT22;23057;48.554;14.454;2023-02-19T09:55:13;7.70;99.90
41939;DHT22;23057;48.554;14.454;2023-02-19T09:57:50;7.70;99.90
41939;DHT22;23057;48.554;14.454;2023-02-19T10:03:03;7.50;99.90
41939;DHT22;23057;48.554;14.454;2023-02-19T10:05:40;7.50;99.90
41939;DHT22;23057;48.554;14.454;2023-02-19T10:08:12;7.80;99.90
41939;DHT22;23057;48.554;14.454;2023-02-19T10:10:49;8.10;99.90
41939;DHT22;23057;48.554;14.454;2023-02-19T10:13:29;8.10;99.90
41939;DHT22;23057;48.554;14.454;2023-02-19T10:16:05;7.90;99.90
41939;DHT22;23057;48.554;14.454;2023-02-19T10:18:46;8.00;99.90
41939;DHT22;23057;48.554;14.454;2023-02-19T10:21:18;8.30;99.90
41939;DHT22;23057;48.554;14.454;2023-02-19T10:23:54;8.40;99.90
41939;DHT22;23057;48.554;14.454;2023-02-19T10:26:32;8.40;99.90
41939;DHT22;23057;48.554;14.454;2023-02-19T10:29:08;8.50;99.90
41939;DHT22;23057;48.554;14.454;2023-02-19T10:31:39;8.70;99.90
41939;DHT22;23057;48.554;14.454;2023-02-19T10:34:17;8.10;99.90
41939;DHT22;23057;48.554;14.454;2023-02-19T10:36:51;8.00;99.90
41939;DHT22;23057;48.554;14.454;2023-02-19T10:41:53;8.20;99.90
41939;DHT22;23057;48.554;14.454;2023-02-19T10:44:24;7.90;99.90
41939;DHT22;23057;48.554;14.454;2023-02-19T10:46:58;7.70;99.90
41939;DHT22;23057;48.554;14.454;2023-02-19T10:49:31;7.70;99.90
41939;DHT22;23057;48.554;14.454;2023-02-19T10:55:19;7.50;99.90
41939;DHT22;23057;48.554;14.454;2023-02-19T10:57:58;7.40;99.90
41939;DHT22;23057;48.554;14.454;2023-02-19T11:04:15;7.40;99.90
41939;DHT22;23057;48.554;14.454;2023-02-19T11:06:47;7.20;99.90
41939;DHT22;23057;48.554;14.454;2023-02-19T11:09:28;7.10;99.90
41939;DHT22;23057;48.554;14.454;2023-02-19T11:12:07;7.00;99.90
41939;DHT22;23057;48.554;14.454;2023-02-19T11:14:42;7.10;99.90
41939;DHT22;23057;48.554;14.454;2023-02-19T11:17:19;7.10;99.90
41939;DHT22;23057;48.554;14.454;2023-02-19T11:19:55;6.90;99.90
41939;DHT22;23057;48.554;14.454;2023-02-19T11:22:40;7.00;99.90
41939;DHT22;23057;48.554;14.454;2023-02-19T11:27:53;6.90;99.90
41939;DHT22;23057;48.554;14.454;2023-02-19T11:30:52;7.00;99.90
41939;DHT22;23057;48.554;14.454;2023-02-19T11:33:24;7.10;99.90
41939;DHT22;23057;48.554;14.454;2023-02-19T11:36:16;7.30;99.90
41939;DHT22;23057;48.554;14.454;2023-02-19T11:38:53;7.50;99.90
41939;DHT22;23057;48.554;14.454;2023-02-19T11:41:46;7.40;99.90
41939;DHT22;23057;48.554;14.454;2023-02-19T11:57:03;7.40;99.90
41939;DHT22;23057;48.554;14.454;2023-02-19T12:11:53;7.60;99.90
41939;DHT22;23057;48.554;14.454;2023-02-19T12:14:40;7.60;99.90
41939;DHT22;23057;48.554;14.454;2023-02-19T12:20:32;7.80;99.90
41939;DHT22;23057;48.554;14.454;2023-02-19T12:23:37;7.70;99.90
41939;DHT22;23057;48.554;14.454;2023-02-19T12:29:46;7.60;99.90
41939;DHT22;23057;48.554;14.454;2023-02-19T12:41:17;7.60;99.90
41939;DHT22;23057;48.554;14.454;2023-02-19T12:44:10;7.60;99.90
41939;DHT22;23057;48.554;14.454;2023-02-19T12:46:52;7.60;99.90
41939;DHT22;23057;48.554;14.454;2023-02-19T12:49:34;8.00;99.90
41939;DHT22;23057;48.554;14.454;2023-02-19T12:52:18;8.10;99.90
41939;DHT22;23057;48.554;14.454;2023-02-19T12:54:57;8.00;99.90
41939;DHT22;23057;48.554;14.454;2023-02-19T12:57:46;8.00;99.90
41939;DHT22;23057;48.554;14.454;2023-02-19T13:03:10;8.10;99.90
41939;DHT22;23057;48.554;14.454;2023-02-19T13:05:58;8.20;99.90
41939;DHT22;23057;48.554;14.454;2023-02-19T13:08:40;8.50;99.90
41939;DHT22;23057;48.554;14.454;2023-02-19T13:11:26;8.50;99.90
41939;DHT22;23057;48.554;14.454;2023-02-19T13:14:05;8.10;99.90
41939;DHT22;23057;48.554;14.454;2023-02-19T13:17:07;8.20;99.90
41939;DHT22;23057;48.554;14.454;2023-02-19T13:20:00;7.90;99.90
41939;DHT22;23057;48.554;14.454;2023-02-19T13:22:57;8.00;99.90
41939;DHT22;23057;48.554;14.454;2023-02-19T13:38:38;7.70;99.90
41939;DHT22;23057;48.554;14.454;2023-02-19T13:41:23;7.70;99.90
41939;DHT22;23057;48.554;14.454;2023-02-19T13:44:01;7.70;99.90
41939;DHT22;23057;48.554;14.454;2023-02-19T13:46:38;7.50;99.90
41939;DHT22;23057;48.554;14.454;2023-02-19T13:52:31;7.50;99.90
41939;DHT22;23057;48.554;14.454;2023-02-19T14:03:48;7.20;99.90
41939;DHT22;23057;48.554;14.454;2023-02-19T14:14:39;7.00;99.90
41939;DHT22;23057;48.554;14.454;2023-02-19T14:20:02;6.90;99.90
41939;DHT22;23057;48.554;14.454;2023-02-19T14:23:22;6.90;99.90
41939;DHT22;23057;48.554;14.454;2023-02-19T14:25:55;7.00;99.90
41939;DHT22;23057;48.554;14.454;2023-02-19T14:28:32;6.90;99.90
41939;DHT22;23057;48.554;14.454;2023-02-19T14:34:04;6.90;99.90
41939;DHT22;23057;48.554;14.454;2023-02-19T14:36:57;6.90;99.90
41939;DHT22;23057;48.554;14.454;2023-02-19T14:39:31;6.90;99.90
41939;DHT22;23057;48.554;14.454;2023-02-19T14:42:16;7.00;99.90
41939;DHT22;23057;48.554;14.454;2023-02-19T14:45:02;6.90;99.90
41939;DHT22;23057;48.554;14.454;2023-02-19T14:47:36;7.00;99.90
41939;DHT22;23057;48.554;14.454;2023-02-19T14:50:11;7.00;99.90
41939;DHT22;23057;48.554;14.454;2023-02-19T14:52:51;7.00;99.90
41939;DHT22;23057;48.554;14.454;2023-02-19T14:55:31;7.00;99.90
41939;DHT22;23057;48.554;14.454;2023-02-19T14:58:06;7.00;99.90
41939;DHT22;23057;48.554;14.454;2023-02-19T15:00:45;7.00;99.90
41939;DHT22;23057;48.554;14.454;2023-02-19T15:03:26;7.00;99.90
41939;DHT22;23057;48.554;14.454;2023-02-19T15:06:04;6.90;99.90
41939;DHT22;23057;48.554;14.454;2023-02-19T15:08:47;6.90;99.90
41939;DHT22;23057;48.554;14.454;2023-02-19T15:11:25;6.80;99.90
41939;DHT22;23057;48.554;14.454;2023-02-19T15:14:01;6.80;99.90
41939;DHT22;23057;48.554;14.454;2023-02-19T15:16:36;6.80;99.90
41939;DHT22;23057;48.554;14.454;2023-02-19T15:19:07;6.70;99.90
41939;DHT22;23057;48.554;14.454;2023-02-19T15:21:45;6.60;99.90
41939;DHT22;23057;48.554;14.454;2023-02-19T15:24:18;6.60;99.90
41939;DHT22;23057;48.554;14.454;2023-02-19T15:26:50;6.60;99.90
41939;DHT22;23057;48.554;14.454;2023-02-19T15:29:24;6.60;99.90
41939;DHT22;23057;48.554;14.454;2023-02-19T15:31:58;6.60;99.90
41939;DHT22;23057;48.554;14.454;2023-02-19T15:34:30;6.50;99.90
41939;DHT22;23057;48.554;14.454;2023-02-19T15:37:03;6.50;99.90
41939;DHT22;23057;48.554;14.454;2023-02-19T15:39:38;6.50;99.90
41939;DHT22;23057;48.554;14.454;2023-02-19T15:42:36;6.50;99.90
41939;DHT22;23057;48.554;14.454;2023-02-19T15:45:24;6.50;99.90
41939;DHT22;23057;48.554;14.454;2023-02-19T15:48:11;6.50;99.90
41939;DHT22;23057;48.554;14.454;2023-02-19T15:50:50;6.50;99.90
41939;DHT22;23057;48.554;14.454;2023-02-19T15:53:39;6.50;99.90
41939;DHT22;23057;48.554;14.454;2023-02-19T15:56:19;6.50;99.90
41939;DHT22;23057;48.554;14.454;2023-02-19T15:59:10;6.50;99.90
41939;DHT22;23057;48.554;14.454;2023-02-19T16:02:13;6.50;99.90
41939;DHT22;23057;48.554;14.454;2023-02-19T16:04:45;6.50;99.90
41939;DHT22;23057;48.554;14.454;2023-02-19T16:07:28;6.50;99.90
41939;DHT22;23057;48.554;14.454;2023-02-19T16:10:04;6.50;99.90
41939;DHT22;23057;48.554;14.454;2023-02-19T16:12:42;6.50;99.90
41939;DHT22;23057;48.554;14.454;2023-02-19T16:15:13;6.50;99.90
41939;DHT22;23057;48.554;14.454;2023-02-19T16:17:44;6.40;99.90
41939;DHT22;23057;48.554;14.454;2023-02-19T16:20:19;6.50;99.90
41939;DHT22;23057;48.554;14.454;2023-02-19T16:22:56;6.40;99.90
41939;DHT22;23057;48.554;14.454;2023-02-19T16:25:39;6.50;99.90
41939;DHT22;23057;48.554;14.454;2023-02-19T16:33:37;6.40;99.90
41939;DHT22;23057;48.554;14.454;2023-02-19T16:36:24;6.40;99.90
41939;DHT22;23057;48.554;14.454;2023-02-19T16:39:14;6.40;99.90
41939;DHT22;23057;48.554;14.454;2023-02-19T16:46:57;6.30;99.90
41939;DHT22;23057;48.554;14.454;2023-02-19T16:49:35;6.30;99.90
41939;DHT22;23057;48.554;14.454;2023-02-19T16:52:06;6.20;99.90
41939;DHT22;23057;48.554;14.454;2023-02-19T16:54:38;6.10;99.90
41939;DHT22;23057;48.554;14.454;2023-02-19T16:57:09;6.00;99.90
41939;DHT22;23057;48.554;14.454;2023-02-19T16:59:40;6.00;99.90
41939;DHT22;23057;48.554;14.454;2023-02-19T17:02:14;5.90;99.90
41939;DHT22;23057;48.554;14.454;2023-02-19T17:04:50;5.90;99.90
41939;DHT22;23057;48.554;14.454;2023-02-19T17:07:24;5.90;99.90
41939;DHT22;23057;48.554;14.454;2023-02-19T17:09:56;5.80;99.90
41939;DHT22;23057;48.554;14.454;2023-02-19T17:12:27;5.80;99.90
41939;DHT22;23057;48.554;14.454;2023-02-19T17:14:58;5.80;99.90
41939;DHT22;23057;48.554;14.454;2023-02-19T17:17:28;5.80;99.90
41939;DHT22;23057;48.554;14.454;2023-02-19T17:19:59;5.80;99.90
41939;DHT22;23057;48.554;14.454;2023-02-19T17:22:30;5.80;99.90
41939;DHT22;23057;48.554;14.454;2023-02-19T17:25:00;5.80;99.90
41939;DHT22;23057;48.554;14.454;2023-02-19T17:27:31;5.80;99.90
41939;DHT22;23057;48.554;14.454;2023-02-19T17:30:02;5.80;99.90
41939;DHT22;23057;48.554;14.454;2023-02-19T17:32:39;5.70;99.90
41939;DHT22;23057;48.554;14.454;2023-02-19T17:35:09;5.70;99.90
41939;DHT22;23057;48.554;14.454;2023-02-19T17:37:40;5.70;99.90
41939;DHT22;23057;48.554;14.454;2023-02-19T17:40:21;5.70;99.90
41939;DHT22;23057;48.554;14.454;2023-02-19T17:43:01;5.70;99.90
41939;DHT22;23057;48.554;14.454;2023-02-19T17:45:32;5.70;99.90
41939;DHT22;23057;48.554;14.454;2023-02-19T17:48:03;5.80;99.90
41939;DHT22;23057;48.554;14.454;2023-02-19T17:50:35;5.80;99.90
41939;DHT22;23057;48.554;14.454;2023-02-19T17:53:06;5.70;99.90
41939;DHT22;23057;48.554;14.454;2023-02-19T17:55:37;6.20;99.90
41939;DHT22;23057;48.554;14.454;2023-02-19T17:58:08;6.50;99.90
41939;DHT22;23057;48.554;14.454;2023-02-19T18:00:39;6.90;99.90
41939;DHT22;23057;48.554;14.454;2023-02-19T18:03:10;6.30;99.90
41939;DHT22;23057;48.554;14.454;2023-02-19T18:05:40;6.10;99.90
41939;DHT22;23057;48.554;14.454;2023-02-19T18:08:11;5.90;99.90
41939;DHT22;23057;48.554;14.454;2023-02-19T18:10:42;5.80;99.90
41939;DHT22;23057;48.554;14.454;2023-02-19T18:13:13;5.70;99.90
41939;DHT22;23057;48.554;14.454;2023-02-19T18:15:44;5.60;99.90
41939;DHT22;23057;48.554;14.454;2023-02-19T18:18:15;5.50;99.90
41939;DHT22;23057;48.554;14.454;2023-02-19T18:20:45;5.50;99.90
41939;DHT22;23057;48.554;14.454;2023-02-19T18:23:16;5.50;99.90
41939;DHT22;23057;48.554;14.454;2023-02-19T18:25:49;5.40;99.90
41939;DHT22;23057;48.554;14.454;2023-02-19T18:28:20;5.40;99.90
41939;DHT22;23057;48.554;14.454;2023-02-19T18:30:51;5.40;99.90
41939;DHT22;23057;48.554;14.454;2023-02-19T18:33:21;5.40;99.90
41939;DHT22;23057;48.554;14.454;2023-02-19T18:35:52;5.40;99.90
41939;DHT22;23057;48.554;14.454;2023-02-19T18:38:23;5.40;99.90
41939;DHT22;23057;48.554;14.454;2023-02-19T18:40:54;5.40;99.90
41939;DHT22;23057;48.554;14.454;2023-02-19T18:43:24;5.40;99.90